sensor_id;sensor_type;location;lat;lon;timestamp;temperature;humidity
45785;DHT22;31489;51.404;5.474;2022-07-29T00:02:07;23.80;45.10
45785;DHT22;31489;51.404;5.474;2022-07-29T00:04:35;23.80;45.00
45785;DHT22;31489;51.404;5.474;2022-07-29T00:07:00;23.80;45.40
45785;DHT22;31489;51.404;5.474;2022-07-29T00:09:26;23.70;45.50
45785;DHT22;31489;51.404;5.474;2022-07-29T00:11:52;23.70;45.40
45785;DHT22;31489;51.404;5.474;2022-07-29T00:14:18;23.70;45.80
45785;DHT22;31489;51.404;5.474;2022-07-29T00:16:43;23.70;46.50
45785;DHT22;31489;51.404;5.474;2022-07-29T00:19:09;23.70;45.30
45785;DHT22;31489;51.404;5.474;2022-07-29T00:21:34;23.70;44.90
45785;DHT22;31489;51.404;5.474;2022-07-29T00:24:00;23.70;44.80
45785;DHT22;31489;51.404;5.474;2022-07-29T00:26:25;23.60;44.80
45785;DHT22;31489;51.404;5.474;2022-07-29T00:28:53;23.60;45.00
45785;DHT22;31489;51.404;5.474;2022-07-29T00:31:18;23.60;44.90
45785;DHT22;31489;51.404;5.474;2022-07-29T00:33:44;23.60;44.70
45785;DHT22;31489;51.404;5.474;2022-07-29T00:36:09;23.60;45.00
45785;DHT22;31489;51.404;5.474;2022-07-29T00:38:35;23.50;44.80
45785;DHT22;31489;51.404;5.474;2022-07-29T00:41:00;23.50;44.90
45785;DHT22;31489;51.404;5.474;2022-07-29T00:43:26;23.40;45.50
45785;DHT22;31489;51.404;5.474;2022-07-29T00:45:52;23.40;45.70
45785;DHT22;31489;51.404;5.474;2022-07-29T00:48:18;23.40;46.80
45785;DHT22;31489;51.404;5.474;2022-07-29T00:50:43;23.40;48.40
45785;DHT22;31489;51.404;5.474;2022-07-29T00:53:11;23.30;49.80
45785;DHT22;31489;51.404;5.474;2022-07-29T00:55:37;23.30;51.40
45785;DHT22;31489;51.404;5.474;2022-07-29T00:58:03;23.20;51.90
45785;DHT22;31489;51.404;5.474;2022-07-29T01:00:29;23.10;52.70
45785;DHT22;31489;51.404;5.474;2022-07-29T01:02:54;23.10;52.50
45785;DHT22;31489;51.404;5.474;2022-07-29T01:05:21;23.00;52.80
45785;DHT22;31489;51.404;5.474;2022-07-29T01:07:51;22.90;53.70
45785;DHT22;31489;51.404;5.474;2022-07-29T01:10:18;22.80;53.80
45785;DHT22;31489;51.404;5.474;2022-07-29T01:12:47;22.80;53.70
45785;DHT22;31489;51.404;5.474;2022-07-29T01:15:13;22.70;53.70
45785;DHT22;31489;51.404;5.474;2022-07-29T01:17:48;22.60;54.50
45785;DHT22;31489;51.404;5.474;2022-07-29T01:21:21;22.60;55.00
45785;DHT22;31489;51.404;5.474;2022-07-29T01:29:03;22.40;55.50
45785;DHT22;31489;51.404;5.474;2022-07-29T01:31:56;22.40;55.10
45785;DHT22;31489;51.404;5.474;2022-07-29T01:35:02;22.20;56.70
45785;DHT22;31489;51.404;5.474;2022-07-29T01:37:29;22.20;56.20
45785;DHT22;31489;51.404;5.474;2022-07-29T01:39:59;22.10;55.60
45785;DHT22;31489;51.404;5.474;2022-07-29T01:42:43;22.00;56.10
45785;DHT22;31489;51.404;5.474;2022-07-29T01:45:15;21.90;57.30
45785;DHT22;31489;51.404;5.474;2022-07-29T01:47:46;21.90;58.00
45785;DHT22;31489;51.404;5.474;2022-07-29T01:50:16;21.80;58.50
45785;DHT22;31489;51.404;5.474;2022-07-29T01:52:48;21.80;58.60
45785;DHT22;31489;51.404;5.474;2022-07-29T01:55:16;21.70;59.10
45785;DHT22;31489;51.404;5.474;2022-07-29T01:57:45;21.70;59.20
45785;DHT22;31489;51.404;5.474;2022-07-29T02:00:12;21.60;59.60
45785;DHT22;31489;51.404;5.474;2022-07-29T02:02:40;21.60;59.60
45785;DHT22;31489;51.404;5.474;2022-07-29T02:05:08;21.60;60.30
45785;DHT22;31489;51.404;5.474;2022-07-29T02:07:36;21.60;60.60
45785;DHT22;31489;51.404;5.474;2022-07-29T02:10:06;21.50;60.70
45785;DHT22;31489;51.404;5.474;2022-07-29T02:12:32;21.50;61.00
45785;DHT22;31489;51.404;5.474;2022-07-29T02:15:00;21.50;60.90
45785;DHT22;31489;51.404;5.474;2022-07-29T02:17:31;21.50;61.10
45785;DHT22;31489;51.404;5.474;2022-07-29T02:20:00;21.50;62.40
45785;DHT22;31489;51.404;5.474;2022-07-29T02:22:30;21.50;61.70
45785;DHT22;31489;51.404;5.474;2022-07-29T02:24:57;21.50;61.80
45785;DHT22;31489;51.404;5.474;2022-07-29T02:27:23;21.50;61.90
45785;DHT22;31489;51.404;5.474;2022-07-29T02:29:51;21.50;61.80
45785;DHT22;31489;51.404;5.474;2022-07-29T02:32:18;21.50;62.00
45785;DHT22;31489;51.404;5.474;2022-07-29T02:34:46;21.50;62.10
45785;DHT22;31489;51.404;5.474;2022-07-29T02:37:13;21.50;62.50
45785;DHT22;31489;51.404;5.474;2022-07-29T02:39:42;21.40;62.20
45785;DHT22;31489;51.404;5.474;2022-07-29T02:42:12;21.50;63.10
45785;DHT22;31489;51.404;5.474;2022-07-29T02:44:39;21.40;63.20
45785;DHT22;31489;51.404;5.474;2022-07-29T02:47:16;21.50;62.40
45785;DHT22;31489;51.404;5.474;2022-07-29T02:52:55;21.40;62.30
45785;DHT22;31489;51.404;5.474;2022-07-29T02:55:23;21.40;62.80
45785;DHT22;31489;51.404;5.474;2022-07-29T03:00:40;21.30;63.20
45785;DHT22;31489;51.404;5.474;2022-07-29T03:03:11;21.40;62.70
45785;DHT22;31489;51.404;5.474;2022-07-29T03:05:37;21.30;63.10
45785;DHT22;31489;51.404;5.474;2022-07-29T03:08:06;21.30;62.90
45785;DHT22;31489;51.404;5.474;2022-07-29T03:10:33;21.30;63.10
45785;DHT22;31489;51.404;5.474;2022-07-29T03:13:00;21.30;63.00
45785;DHT22;31489;51.404;5.474;2022-07-29T03:15:27;21.30;63.20
45785;DHT22;31489;51.404;5.474;2022-07-29T03:17:53;21.30;63.30
45785;DHT22;31489;51.404;5.474;2022-07-29T03:20:19;21.30;63.20
45785;DHT22;31489;51.404;5.474;2022-07-29T03:22:46;21.20;63.00
45785;DHT22;31489;51.404;5.474;2022-07-29T03:25:16;21.20;63.10
45785;DHT22;31489;51.404;5.474;2022-07-29T03:27:43;21.20;63.40
45785;DHT22;31489;51.404;5.474;2022-07-29T03:30:09;21.20;63.20
45785;DHT22;31489;51.404;5.474;2022-07-29T03:32:36;21.20;63.40
45785;DHT22;31489;51.404;5.474;2022-07-29T03:35:02;21.20;63.70
45785;DHT22;31489;51.404;5.474;2022-07-29T03:37:28;21.20;63.40
45785;DHT22;31489;51.404;5.474;2022-07-29T03:39:57;21.20;63.70
45785;DHT22;31489;51.404;5.474;2022-07-29T03:42:26;21.10;63.60
45785;DHT22;31489;51.404;5.474;2022-07-29T03:44:54;21.10;63.80
45785;DHT22;31489;51.404;5.474;2022-07-29T03:47:24;21.10;63.90
45785;DHT22;31489;51.404;5.474;2022-07-29T03:49:52;21.10;63.90
45785;DHT22;31489;51.404;5.474;2022-07-29T03:52:19;21.10;63.80
45785;DHT22;31489;51.404;5.474;2022-07-29T03:54:46;21.10;63.60
45785;DHT22;31489;51.404;5.474;2022-07-29T03:57:12;21.00;63.60
45785;DHT22;31489;51.404;5.474;2022-07-29T03:59:39;21.10;63.60
45785;DHT22;31489;51.404;5.474;2022-07-29T04:02:09;21.00;63.90
45785;DHT22;31489;51.404;5.474;2022-07-29T04:04:36;21.00;64.20
45785;DHT22;31489;51.404;5.474;2022-07-29T04:07:02;21.00;63.90
45785;DHT22;31489;51.404;5.474;2022-07-29T04:09:28;21.00;63.60
45785;DHT22;31489;51.404;5.474;2022-07-29T04:11:53;21.00;63.30
45785;DHT22;31489;51.404;5.474;2022-07-29T04:14:19;20.90;63.20
45785;DHT22;31489;51.404;5.474;2022-07-29T04:16:45;20.90;63.40
45785;DHT22;31489;51.404;5.474;2022-07-29T04:19:11;20.90;63.40
45785;DHT22;31489;51.404;5.474;2022-07-29T04:21:38;20.80;63.50
45785;DHT22;31489;51.404;5.474;2022-07-29T04:24:05;20.80;63.50
45785;DHT22;31489;51.404;5.474;2022-07-29T04:26:30;20.80;63.80
45785;DHT22;31489;51.404;5.474;2022-07-29T04:28:56;20.80;64.00
45785;DHT22;31489;51.404;5.474;2022-07-29T04:31:21;20.70;64.10
45785;DHT22;31489;51.404;5.474;2022-07-29T04:33:47;20.70;64.30
45785;DHT22;31489;51.404;5.474;2022-07-29T04:36:12;20.70;64.20
45785;DHT22;31489;51.404;5.474;2022-07-29T04:38:38;20.70;64.30
45785;DHT22;31489;51.404;5.474;2022-07-29T04:41:04;20.70;64.60
45785;DHT22;31489;51.404;5.474;2022-07-29T04:43:32;20.70;64.70
45785;DHT22;31489;51.404;5.474;2022-07-29T04:45:58;20.70;64.60
45785;DHT22;31489;51.404;5.474;2022-07-29T04:48:24;20.70;64.80
45785;DHT22;31489;51.404;5.474;2022-07-29T04:50:49;20.70;65.10
45785;DHT22;31489;51.404;5.474;2022-07-29T04:53:15;20.70;65.40
45785;DHT22;31489;51.404;5.474;2022-07-29T04:55:40;20.70;64.90
45785;DHT22;31489;51.404;5.474;2022-07-29T04:58:06;20.70;64.80
45785;DHT22;31489;51.404;5.474;2022-07-29T05:00:32;20.60;64.40
45785;DHT22;31489;51.404;5.474;2022-07-29T05:02:58;20.70;64.60
45785;DHT22;31489;51.404;5.474;2022-07-29T05:05:24;20.60;64.60
45785;DHT22;31489;51.404;5.474;2022-07-29T05:07:49;20.60;64.60
45785;DHT22;31489;51.404;5.474;2022-07-29T05:10:15;20.60;64.90
45785;DHT22;31489;51.404;5.474;2022-07-29T05:12:40;20.60;65.00
45785;DHT22;31489;51.404;5.474;2022-07-29T05:15:06;20.60;65.10
45785;DHT22;31489;51.404;5.474;2022-07-29T05:17:32;20.60;65.10
45785;DHT22;31489;51.404;5.474;2022-07-29T05:19:57;20.60;65.10
45785;DHT22;31489;51.404;5.474;2022-07-29T05:22:23;20.60;65.20
45785;DHT22;31489;51.404;5.474;2022-07-29T05:24:49;20.60;65.20
45785;DHT22;31489;51.404;5.474;2022-07-29T05:27:14;20.60;65.20
45785;DHT22;31489;51.404;5.474;2022-07-29T05:29:40;20.60;64.90
45785;DHT22;31489;51.404;5.474;2022-07-29T05:32:05;20.60;64.80
45785;DHT22;31489;51.404;5.474;2022-07-29T05:34:31;20.60;65.00
45785;DHT22;31489;51.404;5.474;2022-07-29T05:36:57;20.50;64.90
45785;DHT22;31489;51.404;5.474;2022-07-29T05:39:23;20.50;65.00
45785;DHT22;31489;51.404;5.474;2022-07-29T05:41:49;20.50;65.00
45785;DHT22;31489;51.404;5.474;2022-07-29T05:44:14;20.50;65.00
45785;DHT22;31489;51.404;5.474;2022-07-29T05:46:40;20.50;64.90
45785;DHT22;31489;51.404;5.474;2022-07-29T05:49:06;20.40;65.20
45785;DHT22;31489;51.404;5.474;2022-07-29T05:51:33;20.50;65.20
45785;DHT22;31489;51.404;5.474;2022-07-29T05:53:59;20.40;65.10
45785;DHT22;31489;51.404;5.474;2022-07-29T05:56:25;20.40;65.20
45785;DHT22;31489;51.404;5.474;2022-07-29T05:58:51;20.40;65.20
45785;DHT22;31489;51.404;5.474;2022-07-29T06:01:16;20.50;65.10
45785;DHT22;31489;51.404;5.474;2022-07-29T06:03:42;20.40;65.20
45785;DHT22;31489;51.404;5.474;2022-07-29T06:06:08;20.40;65.20
45785;DHT22;31489;51.404;5.474;2022-07-29T06:08:34;20.40;65.10
45785;DHT22;31489;51.404;5.474;2022-07-29T06:11:00;20.40;65.20
45785;DHT22;31489;51.404;5.474;2022-07-29T06:13:26;20.40;64.90
45785;DHT22;31489;51.404;5.474;2022-07-29T06:15:53;20.40;64.80
45785;DHT22;31489;51.404;5.474;2022-07-29T06:18:18;20.50;65.20
45785;DHT22;31489;51.404;5.474;2022-07-29T06:20:46;20.50;65.50
45785;DHT22;31489;51.404;5.474;2022-07-29T06:23:11;20.50;65.00
45785;DHT22;31489;51.404;5.474;2022-07-29T06:25:39;20.50;65.90
45785;DHT22;31489;51.404;5.474;2022-07-29T06:28:05;20.50;65.50
45785;DHT22;31489;51.404;5.474;2022-07-29T06:30:31;20.50;64.90
45785;DHT22;31489;51.404;5.474;2022-07-29T06:32:56;20.60;65.10
45785;DHT22;31489;51.404;5.474;2022-07-29T06:35:22;20.60;65.40
45785;DHT22;31489;51.404;5.474;2022-07-29T06:37:47;20.60;65.50
45785;DHT22;31489;51.404;5.474;2022-07-29T06:40:13;20.60;64.70
45785;DHT22;31489;51.404;5.474;2022-07-29T06:42:57;20.60;64.90
45785;DHT22;31489;51.404;5.474;2022-07-29T06:45:22;20.60;65.00
45785;DHT22;31489;51.404;5.474;2022-07-29T06:47:49;20.60;65.00
45785;DHT22;31489;51.404;5.474;2022-07-29T06:50:15;20.60;64.90
45785;DHT22;31489;51.404;5.474;2022-07-29T06:52:41;20.60;64.40
45785;DHT22;31489;51.404;5.474;2022-07-29T06:55:07;20.60;64.70
45785;DHT22;31489;51.404;5.474;2022-07-29T06:57:33;20.70;64.80
45785;DHT22;31489;51.404;5.474;2022-07-29T06:59:59;20.70;64.90
45785;DHT22;31489;51.404;5.474;2022-07-29T07:02:25;20.70;65.00
45785;DHT22;31489;51.404;5.474;2022-07-29T07:04:51;20.70;65.00
45785;DHT22;31489;51.404;5.474;2022-07-29T07:07:17;20.70;65.20
45785;DHT22;31489;51.404;5.474;2022-07-29T07:09:43;20.80;65.30
45785;DHT22;31489;51.404;5.474;2022-07-29T07:12:08;20.80;65.70
45785;DHT22;31489;51.404;5.474;2022-07-29T07:14:34;20.80;65.60
45785;DHT22;31489;51.404;5.474;2022-07-29T07:17:00;20.90;66.40
45785;DHT22;31489;51.404;5.474;2022-07-29T07:19:26;20.90;65.20
45785;DHT22;31489;51.404;5.474;2022-07-29T07:21:53;20.90;64.80
45785;DHT22;31489;51.404;5.474;2022-07-29T07:24:18;21.00;64.90
45785;DHT22;31489;51.404;5.474;2022-07-29T07:26:44;21.10;64.60
45785;DHT22;31489;51.404;5.474;2022-07-29T07:29:10;21.10;64.50
45785;DHT22;31489;51.404;5.474;2022-07-29T07:31:36;21.20;63.70
45785;DHT22;31489;51.404;5.474;2022-07-29T07:34:05;21.20;63.60
45785;DHT22;31489;51.404;5.474;2022-07-29T07:36:31;21.30;63.20
45785;DHT22;31489;51.404;5.474;2022-07-29T07:38:57;21.30;63.30
45785;DHT22;31489;51.404;5.474;2022-07-29T07:41:22;21.40;63.30
45785;DHT22;31489;51.404;5.474;2022-07-29T07:43:48;21.50;63.20
45785;DHT22;31489;51.404;5.474;2022-07-29T07:46:14;21.40;63.20
45785;DHT22;31489;51.404;5.474;2022-07-29T07:48:40;21.50;63.30
45785;DHT22;31489;51.404;5.474;2022-07-29T07:51:06;21.50;62.80
45785;DHT22;31489;51.404;5.474;2022-07-29T07:53:32;21.60;62.50
45785;DHT22;31489;51.404;5.474;2022-07-29T07:55:58;21.70;63.40
45785;DHT22;31489;51.404;5.474;2022-07-29T07:58:23;21.80;62.70
45785;DHT22;31489;51.404;5.474;2022-07-29T08:00:49;21.80;63.00
45785;DHT22;31489;51.404;5.474;2022-07-29T08:03:15;21.90;62.70
45785;DHT22;31489;51.404;5.474;2022-07-29T08:05:40;21.90;62.90
45785;DHT22;31489;51.404;5.474;2022-07-29T08:08:07;22.00;62.00
45785;DHT22;31489;51.404;5.474;2022-07-29T08:10:33;22.00;62.40
45785;DHT22;31489;51.404;5.474;2022-07-29T08:13:19;22.10;62.40
45785;DHT22;31489;51.404;5.474;2022-07-29T08:15:44;22.10;62.70
45785;DHT22;31489;51.404;5.474;2022-07-29T08:18:11;22.20;62.00
45785;DHT22;31489;51.404;5.474;2022-07-29T08:20:38;22.20;62.50
45785;DHT22;31489;51.404;5.474;2022-07-29T08:23:06;22.30;62.30
45785;DHT22;31489;51.404;5.474;2022-07-29T08:25:37;22.30;61.90
45785;DHT22;31489;51.404;5.474;2022-07-29T08:28:04;22.40;61.50
45785;DHT22;31489;51.404;5.474;2022-07-29T08:30:30;22.40;61.20
45785;DHT22;31489;51.404;5.474;2022-07-29T08:32:57;22.50;61.00
45785;DHT22;31489;51.404;5.474;2022-07-29T08:35:24;22.50;60.60
45785;DHT22;31489;51.404;5.474;2022-07-29T08:37:51;22.60;61.00
45785;DHT22;31489;51.404;5.474;2022-07-29T08:40:17;22.60;60.40
45785;DHT22;31489;51.404;5.474;2022-07-29T08:42:43;22.60;60.30
45785;DHT22;31489;51.404;5.474;2022-07-29T08:45:09;22.70;60.70
45785;DHT22;31489;51.404;5.474;2022-07-29T08:47:35;22.70;60.20
45785;DHT22;31489;51.404;5.474;2022-07-29T08:50:05;22.70;60.80
45785;DHT22;31489;51.404;5.474;2022-07-29T08:52:33;22.80;60.90
45785;DHT22;31489;51.404;5.474;2022-07-29T08:55:01;22.80;60.30
45785;DHT22;31489;51.404;5.474;2022-07-29T08:57:28;22.90;59.80
45785;DHT22;31489;51.404;5.474;2022-07-29T08:59:54;23.00;59.80
45785;DHT22;31489;51.404;5.474;2022-07-29T09:02:21;23.00;59.80
45785;DHT22;31489;51.404;5.474;2022-07-29T09:04:47;23.00;59.40
45785;DHT22;31489;51.404;5.474;2022-07-29T09:07:17;23.10;59.20
45785;DHT22;31489;51.404;5.474;2022-07-29T09:09:43;23.20;59.60
45785;DHT22;31489;51.404;5.474;2022-07-29T09:12:10;23.20;59.70
45785;DHT22;31489;51.404;5.474;2022-07-29T09:14:37;23.20;58.70
45785;DHT22;31489;51.404;5.474;2022-07-29T09:17:03;23.30;59.90
45785;DHT22;31489;51.404;5.474;2022-07-29T09:19:36;23.40;59.00
45785;DHT22;31489;51.404;5.474;2022-07-29T09:22:04;23.40;58.20
45785;DHT22;31489;51.404;5.474;2022-07-29T09:24:43;23.40;58.40
45785;DHT22;31489;51.404;5.474;2022-07-29T09:27:11;23.50;58.30
45785;DHT22;31489;51.404;5.474;2022-07-29T09:29:43;23.60;58.20
45785;DHT22;31489;51.404;5.474;2022-07-29T09:32:09;23.60;58.10
45785;DHT22;31489;51.404;5.474;2022-07-29T09:34:36;23.70;58.00
45785;DHT22;31489;51.404;5.474;2022-07-29T09:37:02;23.70;57.50
45785;DHT22;31489;51.404;5.474;2022-07-29T09:39:39;23.80;57.20
45785;DHT22;31489;51.404;5.474;2022-07-29T09:42:11;23.80;58.00
45785;DHT22;31489;51.404;5.474;2022-07-29T09:44:48;23.90;58.00
45785;DHT22;31489;51.404;5.474;2022-07-29T09:47:16;24.00;57.40
45785;DHT22;31489;51.404;5.474;2022-07-29T09:49:58;24.00;58.10
45785;DHT22;31489;51.404;5.474;2022-07-29T09:52:29;24.10;57.40
45785;DHT22;31489;51.404;5.474;2022-07-29T09:55:05;24.20;58.10
45785;DHT22;31489;51.404;5.474;2022-07-29T09:57:31;24.30;57.60
45785;DHT22;31489;51.404;5.474;2022-07-29T09:59:59;24.40;57.10
45785;DHT22;31489;51.404;5.474;2022-07-29T10:02:30;24.40;58.00
45785;DHT22;31489;51.404;5.474;2022-07-29T10:04:56;24.50;56.80
45785;DHT22;31489;51.404;5.474;2022-07-29T10:07:21;24.60;57.20
45785;DHT22;31489;51.404;5.474;2022-07-29T10:09:55;24.70;55.90
45785;DHT22;31489;51.404;5.474;2022-07-29T10:12:22;24.70;55.40
45785;DHT22;31489;51.404;5.474;2022-07-29T10:14:49;24.80;54.90
45785;DHT22;31489;51.404;5.474;2022-07-29T10:17:16;24.90;54.50
45785;DHT22;31489;51.404;5.474;2022-07-29T10:19:42;24.90;54.00
45785;DHT22;31489;51.404;5.474;2022-07-29T10:22:09;25.00;53.30
45785;DHT22;31489;51.404;5.474;2022-07-29T10:24:36;25.00;54.10
45785;DHT22;31489;51.404;5.474;2022-07-29T10:27:05;25.10;56.00
45785;DHT22;31489;51.404;5.474;2022-07-29T10:29:31;25.20;55.10
45785;DHT22;31489;51.404;5.474;2022-07-29T10:32:17;25.30;55.30
45785;DHT22;31489;51.404;5.474;2022-07-29T10:35:00;25.40;55.20
45785;DHT22;31489;51.404;5.474;2022-07-29T10:43:25;25.70;53.50
45785;DHT22;31489;51.404;5.474;2022-07-29T10:45:57;25.80;52.50
45785;DHT22;31489;51.404;5.474;2022-07-29T10:48:23;25.90;52.70
45785;DHT22;31489;51.404;5.474;2022-07-29T10:51:07;25.90;54.00
45785;DHT22;31489;51.404;5.474;2022-07-29T10:53:50;26.10;53.90
45785;DHT22;31489;51.404;5.474;2022-07-29T10:56:27;26.40;53.10
45785;DHT22;31489;51.404;5.474;2022-07-29T11:01:43;27.10;54.00
45785;DHT22;31489;51.404;5.474;2022-07-29T11:04:09;27.50;55.00
45785;DHT22;31489;51.404;5.474;2022-07-29T11:09:25;28.50;52.40
45785;DHT22;31489;51.404;5.474;2022-07-29T11:11:51;29.00;53.60
45785;DHT22;31489;51.404;5.474;2022-07-29T11:14:18;29.40;52.50
45785;DHT22;31489;51.404;5.474;2022-07-29T11:17:04;29.80;51.70
45785;DHT22;31489;51.404;5.474;2022-07-29T11:19:29;30.30;49.30
45785;DHT22;31489;51.404;5.474;2022-07-29T11:21:55;30.60;49.90
45785;DHT22;31489;51.404;5.474;2022-07-29T11:24:23;30.90;48.20
45785;DHT22;31489;51.404;5.474;2022-07-29T11:27:11;31.20;45.60
45785;DHT22;31489;51.404;5.474;2022-07-29T11:29:49;31.40;44.10
45785;DHT22;31489;51.404;5.474;2022-07-29T11:32:16;31.60;43.30
45785;DHT22;31489;51.404;5.474;2022-07-29T11:34:44;31.70;42.80
45785;DHT22;31489;51.404;5.474;2022-07-29T11:40:22;31.80;42.80
45785;DHT22;31489;51.404;5.474;2022-07-29T11:47:25;32.00;43.80
45785;DHT22;31489;51.404;5.474;2022-07-29T11:49:52;32.10;44.10
45785;DHT22;31489;51.404;5.474;2022-07-29T11:52:18;32.10;43.20
45785;DHT22;31489;51.404;5.474;2022-07-29T11:54:44;32.10;41.70
45785;DHT22;31489;51.404;5.474;2022-07-29T11:57:13;32.20;42.30
45785;DHT22;31489;51.404;5.474;2022-07-29T11:59:41;32.20;41.60
45785;DHT22;31489;51.404;5.474;2022-07-29T12:02:07;32.20;40.30
45785;DHT22;31489;51.404;5.474;2022-07-29T12:04:34;32.30;40.80
45785;DHT22;31489;51.404;5.474;2022-07-29T12:07:12;32.40;39.70
45785;DHT22;31489;51.404;5.474;2022-07-29T12:09:38;32.30;39.60
45785;DHT22;31489;51.404;5.474;2022-07-29T12:12:04;32.20;39.60
45785;DHT22;31489;51.404;5.474;2022-07-29T12:14:32;32.20;40.40
45785;DHT22;31489;51.404;5.474;2022-07-29T12:16:59;32.20;40.20
45785;DHT22;31489;51.404;5.474;2022-07-29T12:19:26;32.20;40.10
45785;DHT22;31489;51.404;5.474;2022-07-29T12:21:53;32.10;40.80
45785;DHT22;31489;51.404;5.474;2022-07-29T12:24:24;32.10;40.60
45785;DHT22;31489;51.404;5.474;2022-07-29T12:26:54;32.20;41.10
45785;DHT22;31489;51.404;5.474;2022-07-29T12:29:21;32.20;39.60
45785;DHT22;31489;51.404;5.474;2022-07-29T12:31:51;32.20;40.10
45785;DHT22;31489;51.404;5.474;2022-07-29T12:34:20;32.20;39.00
45785;DHT22;31489;51.404;5.474;2022-07-29T12:36:48;32.20;38.60
45785;DHT22;31489;51.404;5.474;2022-07-29T12:39:15;32.30;38.20
45785;DHT22;31489;51.404;5.474;2022-07-29T12:41:41;32.20;37.80
45785;DHT22;31489;51.404;5.474;2022-07-29T12:44:07;32.20;39.60
45785;DHT22;31489;51.404;5.474;2022-07-29T12:46:33;32.30;38.00
45785;DHT22;31489;51.404;5.474;2022-07-29T12:48:58;32.40;37.70
45785;DHT22;31489;51.404;5.474;2022-07-29T12:51:34;32.40;39.20
45785;DHT22;31489;51.404;5.474;2022-07-29T12:54:05;32.40;39.30
45785;DHT22;31489;51.404;5.474;2022-07-29T12:56:32;32.50;39.20
45785;DHT22;31489;51.404;5.474;2022-07-29T12:58:57;32.60;38.30
45785;DHT22;31489;51.404;5.474;2022-07-29T13:01:23;32.60;38.80
45785;DHT22;31489;51.404;5.474;2022-07-29T13:11:40;32.20;38.60
45785;DHT22;31489;51.404;5.474;2022-07-29T13:14:10;32.20;37.10
45785;DHT22;31489;51.404;5.474;2022-07-29T13:21:58;32.40;39.00
45785;DHT22;31489;51.404;5.474;2022-07-29T13:24:23;32.50;39.40
45785;DHT22;31489;51.404;5.474;2022-07-29T13:26:49;32.60;40.10
45785;DHT22;31489;51.404;5.474;2022-07-29T13:29:17;32.70;37.40
45785;DHT22;31489;51.404;5.474;2022-07-29T13:31:42;32.70;36.80
45785;DHT22;31489;51.404;5.474;2022-07-29T13:34:08;32.70;38.00
45785;DHT22;31489;51.404;5.474;2022-07-29T13:36:33;32.70;37.50
45785;DHT22;31489;51.404;5.474;2022-07-29T13:38:59;32.60;38.10
45785;DHT22;31489;51.404;5.474;2022-07-29T13:41:26;32.60;36.70
45785;DHT22;31489;51.404;5.474;2022-07-29T13:43:52;32.50;37.80
45785;DHT22;31489;51.404;5.474;2022-07-29T13:46:18;32.60;38.40
45785;DHT22;31489;51.404;5.474;2022-07-29T13:48:43;32.60;38.20
45785;DHT22;31489;51.404;5.474;2022-07-29T13:51:09;32.60;38.30
45785;DHT22;31489;51.404;5.474;2022-07-29T13:53:34;32.60;37.00
45785;DHT22;31489;51.404;5.474;2022-07-29T13:56:00;32.60;37.00
45785;DHT22;31489;51.404;5.474;2022-07-29T13:58:26;32.50;37.20
45785;DHT22;31489;51.404;5.474;2022-07-29T14:00:51;32.40;36.60
45785;DHT22;31489;51.404;5.474;2022-07-29T14:03:17;32.40;37.80
45785;DHT22;31489;51.404;5.474;2022-07-29T14:05:42;32.30;38.30
45785;DHT22;31489;51.404;5.474;2022-07-29T14:08:08;32.20;38.50
45785;DHT22;31489;51.404;5.474;2022-07-29T14:10:34;32.10;38.90
45785;DHT22;31489;51.404;5.474;2022-07-29T14:12:59;32.10;38.40
45785;DHT22;31489;51.404;5.474;2022-07-29T14:15:25;32.10;38.90
45785;DHT22;31489;51.404;5.474;2022-07-29T14:17:51;32.00;39.10
45785;DHT22;31489;51.404;5.474;2022-07-29T14:20:16;32.00;39.00
45785;DHT22;31489;51.404;5.474;2022-07-29T14:22:45;31.90;38.20
45785;DHT22;31489;51.404;5.474;2022-07-29T14:25:11;31.90;39.20
45785;DHT22;31489;51.404;5.474;2022-07-29T14:27:36;31.80;39.20
45785;DHT22;31489;51.404;5.474;2022-07-29T14:30:02;31.80;39.50
45785;DHT22;31489;51.404;5.474;2022-07-29T14:32:27;31.70;39.60
45785;DHT22;31489;51.404;5.474;2022-07-29T14:34:54;31.60;39.80
45785;DHT22;31489;51.404;5.474;2022-07-29T14:37:19;31.60;39.80
45785;DHT22;31489;51.404;5.474;2022-07-29T14:39:45;31.60;40.40
45785;DHT22;31489;51.404;5.474;2022-07-29T14:42:11;31.50;38.10
45785;DHT22;31489;51.404;5.474;2022-07-29T14:44:36;31.60;39.50
45785;DHT22;31489;51.404;5.474;2022-07-29T14:47:02;31.70;37.70
45785;DHT22;31489;51.404;5.474;2022-07-29T14:49:27;31.80;37.00
45785;DHT22;31489;51.404;5.474;2022-07-29T14:51:53;31.80;37.20
45785;DHT22;31489;51.404;5.474;2022-07-29T14:54:19;32.00;37.70
45785;DHT22;31489;51.404;5.474;2022-07-29T14:56:44;32.00;36.00
45785;DHT22;31489;51.404;5.474;2022-07-29T14:59:10;32.10;35.90
45785;DHT22;31489;51.404;5.474;2022-07-29T15:01:36;32.10;37.00
45785;DHT22;31489;51.404;5.474;2022-07-29T15:04:02;32.10;37.50
45785;DHT22;31489;51.404;5.474;2022-07-29T15:06:27;32.20;38.00
45785;DHT22;31489;51.404;5.474;2022-07-29T15:08:53;32.20;38.10
45785;DHT22;31489;51.404;5.474;2022-07-29T15:11:19;32.20;35.70
45785;DHT22;31489;51.404;5.474;2022-07-29T15:13:44;32.20;35.30
45785;DHT22;31489;51.404;5.474;2022-07-29T15:16:10;32.30;35.30
45785;DHT22;31489;51.404;5.474;2022-07-29T15:18:35;32.20;34.80
45785;DHT22;31489;51.404;5.474;2022-07-29T15:21:04;32.20;35.50
45785;DHT22;31489;51.404;5.474;2022-07-29T15:23:32;32.20;34.80
45785;DHT22;31489;51.404;5.474;2022-07-29T15:25:58;32.10;35.10
45785;DHT22;31489;51.404;5.474;2022-07-29T15:28:23;32.00;35.00
45785;DHT22;31489;51.404;5.474;2022-07-29T15:30:49;31.90;34.70
45785;DHT22;31489;51.404;5.474;2022-07-29T15:33:15;32.00;35.10
45785;DHT22;31489;51.404;5.474;2022-07-29T15:35:40;31.90;35.70
45785;DHT22;31489;51.404;5.474;2022-07-29T15:38:06;31.80;36.30
45785;DHT22;31489;51.404;5.474;2022-07-29T15:40:31;31.80;36.50
45785;DHT22;31489;51.404;5.474;2022-07-29T15:42:57;31.80;36.60
45785;DHT22;31489;51.404;5.474;2022-07-29T15:45:26;31.90;36.90
45785;DHT22;31489;51.404;5.474;2022-07-29T15:47:51;31.90;36.60
45785;DHT22;31489;51.404;5.474;2022-07-29T15:50:17;31.90;37.20
45785;DHT22;31489;51.404;5.474;2022-07-29T15:52:44;31.90;35.50
45785;DHT22;31489;51.404;5.474;2022-07-29T15:55:10;32.00;35.80
45785;DHT22;31489;51.404;5.474;2022-07-29T15:57:35;32.00;35.60
45785;DHT22;31489;51.404;5.474;2022-07-29T16:00:02;32.00;36.50
45785;DHT22;31489;51.404;5.474;2022-07-29T16:02:28;32.00;35.30
45785;DHT22;31489;51.404;5.474;2022-07-29T16:04:53;32.00;36.00
45785;DHT22;31489;51.404;5.474;2022-07-29T16:07:19;32.00;36.00
45785;DHT22;31489;51.404;5.474;2022-07-29T16:09:44;32.00;36.40
45785;DHT22;31489;51.404;5.474;2022-07-29T16:12:10;31.90;36.50
45785;DHT22;31489;51.404;5.474;2022-07-29T16:14:36;31.90;36.40
45785;DHT22;31489;51.404;5.474;2022-07-29T16:17:01;31.90;37.00